Time;durP1;ratioP1;P1;durP2;ratioP2;P2;SDS_P1;SDS_P2;PMS_P1;PMS_P2;Temp;Humidity;BMP_temperature;BMP_pressure;BME280_temperature;BME280_humidity;BME280_pressure;Samples;Min_cycle;Max_cycle;Signal;HPM_P1;HPM_P2
2022/11/05 00:09:28;;;;;;;10.00;4.87;;;;;6.40;101031.00;;;;10438422;28;20198;-77
2022/11/05 00:19:50;;;;;;;10.23;5.67;;;;;6.40;101048.00;;;;10449661;28;20194;-77
2022/11/05 00:30:18;;;;;;;9.20;4.77;;;;;6.20;101053.00;;;;10478626;28;20190;-77
2022/11/05 00:35:21;;;;;;;6.40;4.67;;;;;6.10;101067.00;;;;10443178;28;20233;-77
2022/11/05 00:40:23;;;;;;;10.10;4.83;;;;;6.10;101076.00;;;;10457223;28;20267;-77
2022/11/05 00:45:25;;;;;;;10.93;5.70;;;;;6.00;101091.00;;;;10477951;28;20201;-77
2022/11/05 00:50:26;;;;;;;13.40;5.63;;;;;6.00;101094.00;;;;10461558;28;20646;-77
2022/11/05 00:55:33;;;;;;;10.37;5.27;;;;;6.00;101094.00;;;;10444885;28;20187;-77
2022/11/05 01:00:39;;;;;;;9.50;5.90;;;;;6.00;101107.00;;;;10461308;28;20169;-77
2022/11/05 01:05:44;;;;;;;11.53;5.40;;;;;6.00;101112.00;;;;10439480;28;20214;-77
2022/11/05 01:10:49;;;;;;;9.17;4.93;;;;;6.00;101119.00;;;;10387471;28;20641;-77
2022/11/05 01:15:51;;;;;;;11.10;5.23;;;;;6.00;101114.00;;;;10403304;28;20171;-77
2022/11/05 01:20:53;;;;;;;9.93;4.73;;;;;5.90;101126.00;;;;10419387;28;20233;-77
2022/11/05 01:25:57;;;;;;;9.53;5.33;;;;;5.90;101124.00;;;;10419602;28;20225;-78
2022/11/05 01:30:59;;;;;;;9.03;5.40;;;;;5.80;101128.00;;;;10441022;28;20197;-78
2022/11/05 01:36:01;;;;;;;8.50;5.37;;;;;5.80;101131.00;;;;10460857;28;20640;-77
2022/11/05 01:41:03;;;;;;;11.90;6.17;;;;;5.70;101122.00;;;;10443654;28;20189;-77
2022/11/05 01:46:05;;;;;;;11.97;5.57;;;;;5.70;101121.00;;;;10459666;28;20252;-77
2022/11/05 01:51:10;;;;;;;8.70;5.63;;;;;5.70;101125.00;;;;10476285;28;20576;-77
2022/11/05 01:56:15;;;;;;;9.47;5.70;;;;;5.60;101126.00;;;;10459880;28;20186;-77
2022/11/05 02:01:18;;;;;;;7.33;5.80;;;;;5.60;101124.00;;;;10460601;28;20670;-77
2022/11/05 02:06:20;;;;;;;9.77;5.33;;;;;5.60;101119.00;;;;10449757;28;20681;-76
2022/11/05 02:11:22;;;;;;;12.23;6.47;;;;;5.60;101135.00;;;;10422675;28;20285;-77
2022/11/05 02:16:36;;;;;;;11.53;7.07;;;;;5.60;101133.00;;;;10443522;28;20189;-76
2022/11/05 02:22:36;;;;;;;13.40;7.10;;;;;5.60;101128.00;;;;10443140;28;20197;-77
2022/11/05 02:27:50;;;;;;;10.97;6.60;;;;;5.60;101133.00;;;;10289865;28;20209;-76
2022/11/05 02:33:18;;;;;;;14.30;7.10;;;;;5.50;101137.00;;;;10459490;28;20206;-77
2022/11/05 02:38:39;;;;;;;10.77;6.60;;;;;5.50;101132.00;;;;10448656;28;20189;-76
2022/11/05 02:44:16;;;;;;;11.87;7.20;;;;;5.40;101125.00;;;;10450100;28;20197;-77
2022/11/05 02:49:45;;;;;;;14.90;7.67;;;;;5.40;101124.00;;;;10450151;28;20221;-77
2022/11/05 02:55:31;;;;;;;13.00;7.43;;;;;5.40;101126.00;;;;10465410;28;20198;-77
2022/11/05 03:00:54;;;;;;;14.60;7.13;;;;;5.30;101120.00;;;;10253163;28;20228;-76
2022/11/05 03:06:02;;;;;;;12.53;6.87;;;;;5.20;101130.00;;;;10414560;28;20216;-76
2022/11/05 03:11:14;;;;;;;9.10;6.53;;;;;5.20;101119.00;;;;10464490;28;20693;-76
2022/11/05 03:16:25;;;;;;;11.43;7.47;;;;;5.10;101123.00;;;;10482066;28;20182;-76
2022/11/05 03:22:14;;;;;;;15.53;8.73;;;;;5.20;101119.00;;;;10481727;28;20201;-77
2022/11/05 03:27:19;;;;;;;12.90;8.20;;;;;5.20;101116.00;;;;10352460;28;20221;-76
2022/11/05 03:32:23;;;;;;;14.80;8.60;;;;;5.20;101119.00;;;;10481186;28;20599;-77
2022/11/05 03:37:29;;;;;;;12.83;8.00;;;;;5.20;101117.00;;;;10406613;28;20198;-76
2022/11/05 03:42:34;;;;;;;18.37;8.43;;;;;5.10;101118.00;;;;10406148;28;20252;-76
2022/11/05 03:47:39;;;;;;;14.70;8.70;;;;;5.10;101122.00;;;;10405422;28;20344;-77
2022/11/05 03:52:52;;;;;;;12.63;7.93;;;;;5.00;101120.00;;;;10423081;28;20190;-76
2022/11/05 03:57:56;;;;;;;13.63;9.00;;;;;5.00;101128.00;;;;10462816;28;20555;-77
2022/11/05 04:02:58;;;;;;;13.23;7.93;;;;;5.00;101123.00;;;;10479130;28;20609;-76
2022/11/05 04:13:23;;;;;;;15.80;9.73;;;;;5.20;101119.00;;;;10421709;28;20194;-77
2022/11/05 04:18:25;;;;;;;18.10;9.30;;;;;5.20;101116.00;;;;10423932;28;20195;-77
2022/11/05 04:34:09;;;;;;;22.77;9.93;;;;;5.10;101128.00;;;;10462081;28;20659;-77
2022/11/05 04:39:11;;;;;;;19.00;9.10;;;;;5.00;101135.00;;;;10444306;28;20197;-77
2022/11/05 04:44:14;;;;;;;18.33;9.60;;;;;4.90;101140.00;;;;10461704;28;20618;-77
2022/11/05 04:49:16;;;;;;;15.67;9.47;;;;;4.90;101150.00;;;;10444467;28;20189;-77
2022/11/05 04:54:17;;;;;;;19.03;9.63;;;;;4.80;101148.00;;;;10428094;28;20239;-77
2022/11/05 04:59:19;;;;;;;21.83;8.73;;;;;4.80;101155.00;;;;10460788;28;20247;-77
2022/11/05 05:04:21;;;;;;;21.13;10.60;;;;;4.70;101165.00;;;;10450499;28;20264;-77
2022/11/05 05:09:23;;;;;;;17.60;10.10;;;;;4.60;101156.00;;;;10436083;28;20193;-77
2022/11/05 05:14:25;;;;;;;17.47;9.17;;;;;4.60;101165.00;;;;10460341;28;20185;-77
2022/11/05 05:19:27;;;;;;;17.23;10.23;;;;;4.60;101157.00;;;;10443836;28;20197;-77
2022/11/05 05:24:29;;;;;;;18.40;8.97;;;;;4.50;101163.00;;;;10459508;28;20221;-77
2022/11/05 05:29:30;;;;;;;18.70;9.30;;;;;4.50;101165.00;;;;10443423;28;20667;-77
2022/11/05 05:34:32;;;;;;;18.20;9.67;;;;;4.50;101173.00;;;;10415129;28;20206;-76
2022/11/05 05:39:34;;;;;;;17.60;9.83;;;;;4.40;101173.00;;;;10385636;28;20596;-76
2022/11/05 05:44:37;;;;;;;17.53;9.33;;;;;4.40;101170.00;;;;10409281;28;20205;-77
2022/11/05 05:49:39;;;;;;;16.23;9.20;;;;;4.40;101183.00;;;;10443418;28;20188;-76
2022/11/05 05:54:40;;;;;;;20.07;10.00;;;;;4.50;101182.00;;;;10444266;28;20185;-77
2022/11/05 05:59:43;;;;;;;22.50;10.53;;;;;4.50;101181.00;;;;10447319;28;20199;-76
2022/11/05 06:04:45;;;;;;;16.27;9.73;;;;;4.50;101175.00;;;;10468702;28;20756;-77
2022/11/05 06:09:47;;;;;;;18.83;9.93;;;;;4.50;101190.00;;;;10467502;28;20645;-76
2022/11/05 06:14:49;;;;;;;19.20;9.67;;;;;4.60;101184.00;;;;10468132;28;20543;-76
2022/11/05 06:19:51;;;;;;;24.10;10.47;;;;;4.60;101184.00;;;;10451015;28;20561;-77
2022/11/05 06:24:53;;;;;;;16.90;10.73;;;;;4.50;101189.00;;;;10466822;28;20213;-77
2022/11/05 06:29:55;;;;;;;24.27;11.43;;;;;4.50;101195.00;;;;10450006;28;20210;-77
2022/11/05 06:34:57;;;;;;;18.77;10.77;;;;;4.60;101196.00;;;;10451233;28;20194;-76
2022/11/05 06:40:00;;;;;;;18.90;11.60;;;;;4.60;101193.00;;;;10393152;28;20217;-76
2022/11/05 06:45:02;;;;;;;22.70;12.20;;;;;4.70;101183.00;;;;10408796;28;20206;-76
2022/11/05 06:50:04;;;;;;;21.63;12.77;;;;;4.90;101187.00;;;;10425090;28;20218;-77
2022/11/05 06:55:06;;;;;;;27.73;11.10;;;;;4.80;101185.00;;;;10412799;28;20210;-77
2022/11/05 07:00:09;;;;;;;19.10;11.93;;;;;4.80;101190.00;;;;10449256;28;20247;-77
2022/11/05 07:05:13;;;;;;;21.87;11.97;;;;;4.80;101203.00;;;;10432699;28;20584;-77
2022/11/05 07:10:17;;;;;;;22.60;10.97;;;;;4.80;101210.00;;;;10439864;28;20219;-77
2022/11/05 07:15:19;;;;;;;21.73;10.93;;;;;5.00;101219.00;;;;10392146;28;20182;-77
2022/11/05 07:20:21;;;;;;;26.47;11.83;;;;;5.30;101226.00;;;;10424116;28;20232;-77
2022/11/05 07:25:23;;;;;;;23.07;11.63;;;;;5.60;101227.00;;;;10417862;28;20216;-76
2022/11/05 07:30:25;;;;;;;25.17;11.40;;;;;5.80;101229.00;;;;10464952;28;20178;-77
2022/11/05 07:35:28;;;;;;;26.07;11.70;;;;;5.90;101231.00;;;;10431678;28;20204;-77
2022/11/05 07:40:30;;;;;;;24.93;11.40;;;;;6.10;101231.00;;;;10463686;28;20198;-77
2022/11/05 07:45:32;;;;;;;26.57;12.30;;;;;6.20;101232.00;;;;10446872;28;20310;-77
2022/11/05 07:50:35;;;;;;;22.77;11.33;;;;;6.30;101237.00;;;;10447495;28;20611;-77
2022/11/05 07:55:39;;;;;;;18.83;10.43;;;;;6.40;101234.00;;;;10421596;28;20605;-77
2022/11/05 08:00:41;;;;;;;20.57;10.67;;;;;6.60;101229.00;;;;10406049;28;20228;-77
2022/11/05 08:05:45;;;;;;;20.27;10.40;;;;;6.90;101233.00;;;;10422771;28;20222;-77
2022/11/05 08:10:47;;;;;;;17.90;10.37;;;;;7.20;101236.00;;;;10405641;28;20194;-78
2022/11/05 08:15:49;;;;;;;19.53;11.00;;;;;7.50;101225.00;;;;10437026;28;20193;-77
2022/11/05 08:20:51;;;;;;;23.27;11.23;;;;;8.00;101240.00;;;;10431414;28;20206;-77
2022/11/05 08:25:53;;;;;;;27.23;13.07;;;;;8.80;101237.00;;;;10461578;28;20214;-77
2022/11/05 08:30:56;;;;;;;17.23;10.73;;;;;9.00;101222.00;;;;10461926;28;20672;-78
2022/11/05 08:36:01;;;;;;;12.30;7.77;;;;;9.00;101229.00;;;;10421401;28;20533;-78
2022/11/05 08:41:03;;;;;;;14.97;7.83;;;;;9.00;101227.00;;;;10395109;28;20228;-78
2022/11/05 08:46:05;;;;;;;11.77;8.10;;;;;9.00;101235.00;;;;10460788;28;20209;-78
2022/11/05 08:51:07;;;;;;;13.57;7.53;;;;;9.00;101230.00;;;;10445282;28;20189;-78
2022/11/05 08:56:09;;;;;;;9.43;6.30;;;;;9.20;101247.00;;;;10444333;28;20217;-78
2022/11/05 09:01:11;;;;;;;8.60;5.63;;;;;9.30;101242.00;;;;10429312;28;20288;-79
2022/11/05 09:06:13;;;;;;;11.47;5.87;;;;;9.50;101248.00;;;;10419275;28;20249;-78
2022/11/05 09:11:16;;;;;;;10.13;6.60;;;;;9.60;101247.00;;;;10436540;28;20213;-79
2022/11/05 09:16:21;;;;;;;10.87;5.63;;;;;9.80;101242.00;;;;10460341;28;20698;-79
2022/11/05 09:21:23;;;;;;;17.93;5.20;;;;;9.90;101247.00;;;;10428585;28;20240;-79
2022/11/05 09:26:26;;;;;;;7.70;5.00;;;;;9.90;101249.00;;;;10428226;28;20205;-79
2022/11/05 09:31:27;;;;;;;10.27;4.80;;;;;10.00;101258.00;;;;10458056;28;20259;-79
2022/11/05 09:36:29;;;;;;;8.87;4.47;;;;;10.00;101245.00;;;;10415364;28;20225;-79
2022/11/05 09:41:36;;;;;;;8.53;4.83;;;;;10.10;101257.00;;;;10404058;28;20225;-79
2022/11/05 09:46:58;;;;;;;8.13;4.73;;;;;10.20;101256.00;;;;10459591;28;20209;-80
2022/11/05 09:52:01;;;;;;;10.67;4.30;;;;;10.30;101262.00;;;;10428186;28;20204;-79
2022/11/05 09:57:06;;;;;;;12.53;4.80;;;;;10.40;101256.00;;;;10419059;28;20652;-79
2022/11/05 10:02:40;;;;;;;9.07;5.23;;;;;10.50;101264.00;;;;10413672;28;20202;-79
2022/11/05 10:08:11;;;;;;;8.80;4.43;;;;;10.60;101264.00;;;;10387646;28;20214;-80
2022/11/05 10:13:30;;;;;;;13.50;4.83;;;;;10.70;101272.00;;;;10419920;28;20201;-79
2022/11/05 10:18:36;;;;;;;8.07;4.40;;;;;10.80;101271.00;;;;10420045;28;20277;-81
2022/11/05 10:23:38;;;;;;;10.60;4.70;;;;;10.90;101282.00;;;;10403546;28;20198;-80
2022/11/05 10:28:40;;;;;;;7.13;4.20;;;;;10.70;101280.00;;;;10386039;28;20207;-80
2022/11/05 10:33:48;;;;;;;8.03;4.17;;;;;10.70;101282.00;;;;10407712;28;20288;-80
2022/11/05 10:38:53;;;;;;;8.43;5.07;;;;;11.70;101269.00;;;;10444443;28;20224;-81
2022/11/05 10:44:04;;;;;;;10.30;3.90;;;;;12.50;101279.00;;;;10447470;28;20194;-81
2022/11/05 10:49:21;;;;;;;6.33;3.30;;;;;13.20;101269.00;;;;10435680;28;20267;-81
2022/11/05 10:54:31;;;;;;;6.63;3.40;;;;;13.50;101273.00;;;;10420909;28;20200;-81
2022/11/05 10:59:35;;;;;;;4.43;2.93;;;;;13.50;101277.00;;;;10410640;28;20200;-81
2022/11/05 11:04:38;;;;;;;4.07;2.70;;;;;13.30;101263.00;;;;10426338;28;20779;-81
2022/11/05 11:09:47;;;;;;;4.33;3.00;;;;;13.40;101261.00;;;;10394867;28;20210;-80
2022/11/05 11:15:08;;;;;;;4.03;2.73;;;;;13.60;101249.00;;;;10394702;28;20289;-81
2022/11/05 11:20:22;;;;;;;2.42;2.22;;;;;13.50;101259.00;;;;10452301;28;20197;-81
2022/11/05 11:25:27;;;;;;;3.03;1.90;;;;;13.50;101260.00;;;;10451600;28;20557;-81
2022/11/05 11:30:30;;;;;;;6.63;2.83;;;;;13.80;101256.00;;;;10434116;28;20564;-81
2022/11/05 11:35:36;;;;;;;7.70;3.22;;;;;14.10;101252.00;;;;10429369;28;20194;-80
2022/11/05 11:40:38;;;;;;;5.75;2.90;;;;;14.10;101255.00;;;;10426032;28;20221;-81
2022/11/05 11:45:52;;;;;;;5.78;3.20;;;;;14.10;101258.00;;;;10408473;28;20236;-81
2022/11/05 11:50:56;;;;;;;5.18;2.97;;;;;13.70;101255.00;;;;10390951;28;20187;-81
2022/11/05 11:56:11;;;;;;;6.38;3.00;;;;;14.00;101232.00;;;;10407529;28;20182;-81
2022/11/05 12:01:39;;;;;;;7.22;2.80;;;;;14.80;101245.00;;;;10409664;28;20201;-81
2022/11/05 12:06:51;;;;;;;6.82;2.78;;;;;15.10;101245.00;;;;10439599;28;20201;-82
2022/11/05 12:12:01;;;;;;;6.20;2.42;;;;;14.60;101246.00;;;;10434261;28;20186;-82
2022/11/05 12:17:28;;;;;;;5.60;2.80;;;;;14.00;101234.00;;;;10425957;28;20190;-81
2022/11/05 12:22:52;;;;;;;5.60;2.22;;;;;13.50;101221.00;;;;10409806;28;20217;-82
2022/11/05 12:28:31;;;;;;;6.57;2.40;;;;;13.30;101216.00;;;;10446734;28;20699;-81
2022/11/05 12:34:02;;;;;;;5.30;2.43;;;;;13.30;101210.00;;;;10460699;28;20296;-81
2022/11/05 12:39:40;;;;;;;3.80;2.70;;;;;13.30;101204.00;;;;10412325;28;20208;-81
2022/11/05 12:45:27;;;;;;;6.00;2.30;;;;;13.40;101199.00;;;;10423004;28;20244;-80
2022/11/05 12:50:48;;;;;;;5.45;2.60;;;;;13.70;101198.00;;;;10369618;28;20186;-80
2022/11/05 12:55:51;;;;;;;6.60;3.00;;;;;13.60;101201.00;;;;10404395;28;20190;-81
2022/11/05 13:01:11;;;;;;;7.67;2.77;;;;;13.50;101193.00;;;;10387624;28;20194;-81
2022/11/05 13:06:41;;;;;;;4.68;2.35;;;;;13.80;101194.00;;;;10412864;28;20636;-81
2022/11/05 13:11:50;;;;;;;5.23;2.87;;;;;14.10;101207.00;;;;10444464;28;20200;-81
2022/11/05 13:17:01;;;;;;;5.77;3.17;;;;;14.30;101210.00;;;;10429752;28;20283;-81
2022/11/05 13:22:24;;;;;;;3.80;2.50;;;;;14.10;101197.00;;;;10477741;28;20240;-80
2022/11/05 13:27:35;;;;;;;6.40;3.00;;;;;14.00;101189.00;;;;10461106;28;20206;-80
2022/11/05 13:32:40;;;;;;;4.93;2.70;;;;;14.10;101183.00;;;;10460599;28;20181;-80
2022/11/05 13:43:40;;;;;;;3.85;2.22;;;;;14.10;101184.00;;;;10461768;28;20178;-81
2022/11/05 13:49:04;;;;;;;4.63;2.53;;;;;13.80;101174.00;;;;10446489;28;20752;-81
2022/11/05 13:54:21;;;;;;;7.13;2.93;;;;;13.60;101172.00;;;;10438773;28;20239;-81
2022/11/05 13:59:27;;;;;;;5.93;2.90;;;;;13.70;101162.00;;;;10427969;28;20178;-81
2022/11/05 14:04:34;;;;;;;5.43;3.17;;;;;13.70;101164.00;;;;10443307;28;20691;-81
2022/11/05 14:09:38;;;;;;;4.03;2.30;;;;;13.50;101162.00;;;;10460837;28;20319;-80
2022/11/05 14:14:45;;;;;;;5.17;2.53;;;;;13.20;101162.00;;;;10461409;28;20193;-81
2022/11/05 14:20:21;;;;;;;6.90;3.33;;;;;13.10;101167.00;;;;10461475;28;20180;-80
2022/11/05 14:25:24;;;;;;;4.37;2.50;;;;;12.90;101164.00;;;;10469356;28;20190;-80
2022/11/05 14:30:44;;;;;;;8.27;2.70;;;;;12.80;101159.00;;;;10468360;28;20186;-80
2022/11/05 14:35:46;;;;;;;12.37;5.43;;;;;12.90;101153.00;;;;10412522;28;20198;-81
2022/11/05 14:40:57;;;;;;;8.57;4.70;;;;;13.00;101160.00;;;;10409517;28;20190;-81
2022/11/05 14:46:02;;;;;;;6.33;4.27;;;;;12.80;101154.00;;;;10425681;28;20229;-80
2022/11/05 14:51:26;;;;;;;6.10;4.10;;;;;12.60;101161.00;;;;10425108;28;20198;-80
2022/11/05 14:56:30;;;;;;;7.73;3.27;;;;;12.30;101164.00;;;;10407480;28;20202;-80
2022/11/05 15:01:32;;;;;;;19.27;11.07;;;;;12.20;101165.00;;;;10425011;28;20644;-81
2022/11/05 15:06:35;;;;;;;9.30;5.50;;;;;12.00;101165.00;;;;10436583;28;20739;-80
2022/11/05 15:11:43;;;;;;;10.73;3.40;;;;;11.80;101169.00;;;;10465572;28;20189;-80
2022/11/05 15:16:52;;;;;;;4.13;3.00;;;;;11.80;101164.00;;;;10426844;28;20190;-81
2022/11/05 15:21:57;;;;;;;10.07;3.70;;;;;11.60;101165.00;;;;10423397;28;20202;-80
2022/11/05 15:27:16;;;;;;;4.70;3.30;;;;;11.50;101162.00;;;;10449700;28;20217;-80
2022/11/05 15:32:23;;;;;;;8.20;3.50;;;;;11.40;101159.00;;;;10447044;28;20201;-80
2022/11/05 15:37:26;;;;;;;8.90;3.83;;;;;11.30;101162.00;;;;10407039;28;20206;-80
2022/11/05 15:42:28;;;;;;;5.17;3.23;;;;;11.20;101167.00;;;;10390951;28;20194;-80
2022/11/05 15:47:33;;;;;;;7.07;3.80;;;;;11.10;101163.00;;;;10406826;28;20218;-80
2022/11/05 15:52:41;;;;;;;11.93;4.07;;;;;11.00;101165.00;;;;10407435;28;20194;-80
2022/11/05 15:57:46;;;;;;;7.13;3.73;;;;;10.90;101153.00;;;;10430785;28;20189;-80
2022/11/05 16:03:07;;;;;;;6.97;4.00;;;;;10.80;101152.00;;;;10447378;28;20200;-80
2022/11/05 16:08:22;;;;;;;7.23;4.37;;;;;10.60;101153.00;;;;10439184;28;20256;-80
2022/11/05 16:13:38;;;;;;;6.57;4.53;;;;;10.60;101153.00;;;;10389546;28;20197;-81
2022/11/05 16:18:40;;;;;;;10.77;4.93;;;;;10.50;101145.00;;;;10425314;28;20260;-81
2022/11/05 16:23:48;;;;;;;5.67;3.93;;;;;10.40;101138.00;;;;10421391;28;20652;-80
2022/11/05 16:28:50;;;;;;;7.27;4.50;;;;;10.40;101132.00;;;;10405013;28;20591;-80
2022/11/05 16:33:53;;;;;;;9.77;4.70;;;;;10.30;101130.00;;;;10421408;28;20267;-80
2022/11/05 16:38:55;;;;;;;6.53;4.20;;;;;10.30;101133.00;;;;10404684;28;20183;-80
2022/11/05 16:43:58;;;;;;;5.60;3.80;;;;;10.30;101127.00;;;;10403733;28;20190;-80
2022/11/05 16:49:01;;;;;;;12.27;4.40;;;;;10.20;101134.00;;;;10403985;28;20210;-80
2022/11/05 16:54:03;;;;;;;6.90;4.37;;;;;10.20;101132.00;;;;10420331;28;20197;-80
2022/11/05 16:59:09;;;;;;;7.53;4.67;;;;;10.20;101134.00;;;;10404089;28;20209;-80
2022/11/05 17:04:12;;;;;;;6.20;4.13;;;;;10.20;101136.00;;;;10403700;28;20218;-80
2022/11/05 17:09:15;;;;;;;7.67;4.30;;;;;10.10;101145.00;;;;10387298;28;20210;-80
2022/11/05 17:14:17;;;;;;;8.27;4.53;;;;;10.10;101136.00;;;;10403888;28;20603;-80
2022/11/05 17:19:18;;;;;;;8.53;4.43;;;;;10.10;101135.00;;;;10460512;28;20186;-80
2022/11/05 17:24:20;;;;;;;9.00;4.87;;;;;10.10;101134.00;;;;10460654;28;20197;-80
2022/11/05 17:29:22;;;;;;;8.93;5.00;;;;;10.10;101128.00;;;;10427660;28;20202;-80
2022/11/05 17:34:24;;;;;;;8.33;4.73;;;;;10.10;101128.00;;;;10416657;28;20202;-80
2022/11/05 17:39:26;;;;;;;11.73;5.07;;;;;10.10;101119.00;;;;10418944;28;20702;-80
2022/11/05 17:44:32;;;;;;;9.07;5.17;;;;;10.10;101116.00;;;;10453074;28;20193;-80
2022/11/05 17:49:34;;;;;;;9.33;5.30;;;;;10.00;101111.00;;;;10435787;28;20706;-80
2022/11/05 17:54:36;;;;;;;8.57;4.50;;;;;10.00;101109.00;;;;10436546;28;20190;-80
2022/11/05 17:59:38;;;;;;;9.87;5.70;;;;;10.00;101113.00;;;;10441102;28;20194;-80
2022/11/05 18:04:40;;;;;;;7.63;4.93;;;;;9.90;101116.00;;;;10426755;28;20225;-80
2022/11/05 18:09:42;;;;;;;10.63;5.10;;;;;10.00;101132.00;;;;10394405;28;20221;-80
2022/11/05 18:14:43;;;;;;;8.73;5.57;;;;;9.90;101133.00;;;;10393930;28;20190;-80
2022/11/05 18:19:45;;;;;;;10.90;5.73;;;;;9.90;101136.00;;;;10405935;28;20243;-80
2022/11/05 18:24:48;;;;;;;9.17;5.37;;;;;9.90;101148.00;;;;10433915;28;20209;-80
2022/11/05 18:29:50;;;;;;;6.13;4.47;;;;;9.90;101145.00;;;;10434855;28;20217;-80
2022/11/05 18:34:52;;;;;;;7.60;4.60;;;;;9.90;101156.00;;;;10434591;28;20687;-80
2022/11/05 18:39:54;;;;;;;10.60;4.63;;;;;9.90;101139.00;;;;10450066;28;20186;-80
2022/11/05 18:44:56;;;;;;;9.17;4.90;;;;;9.90;101164.00;;;;10433797;28;20602;-80
2022/11/05 18:49:59;;;;;;;10.13;4.60;;;;;9.90;101160.00;;;;10450547;28;20545;-80
2022/11/05 18:55:00;;;;;;;10.17;5.67;;;;;9.90;101161.00;;;;10429510;28;20627;-80
2022/11/05 19:00:03;;;;;;;6.97;4.80;;;;;9.90;101164.00;;;;10442072;28;20228;-80
2022/11/05 19:05:06;;;;;;;7.17;4.60;;;;;9.90;101165.00;;;;10407973;28;20268;-80
2022/11/05 19:10:28;;;;;;;8.83;4.23;;;;;9.90;101162.00;;;;10407691;28;20202;-80
2022/11/05 19:15:30;;;;;;;7.40;3.97;;;;;10.00;101166.00;;;;10451928;28;20192;-80
2022/11/05 19:20:31;;;;;;;6.33;3.97;;;;;10.10;101164.00;;;;10449376;28;20198;-80
2022/11/05 19:25:39;;;;;;;4.37;3.60;;;;;10.10;101160.00;;;;10465338;28;20219;-80
2022/11/05 19:30:41;;;;;;;8.27;2.90;;;;;10.20;101154.00;;;;10448795;28;20224;-80
2022/11/05 19:35:42;;;;;;;9.20;3.77;;;;;10.20;101140.00;;;;10464504;28;20200;-80
2022/11/05 19:40:44;;;;;;;5.87;3.47;;;;;10.20;101132.00;;;;10448551;28;20212;-80
2022/11/05 19:45:46;;;;;;;5.47;3.33;;;;;10.20;101108.00;;;;10463807;28;20193;-81
2022/11/05 19:50:48;;;;;;;7.70;3.53;;;;;10.20;101086.00;;;;10431625;28;20213;-79
2022/11/05 19:55:50;;;;;;;8.17;3.23;;;;;10.10;101072.00;;;;10422348;28;20195;-80
2022/11/05 20:00:54;;;;;;;4.87;2.93;;;;;10.10;101068.00;;;;10413198;28;20189;-80
2022/11/05 20:06:31;;;;;;;5.73;2.73;;;;;10.00;101070.00;;;;10439804;28;20210;-80
2022/11/05 20:11:38;;;;;;;5.17;2.87;;;;;9.90;101061.00;;;;10411624;28;20608;-80
2022/11/05 20:16:41;;;;;;;5.67;3.03;;;;;9.80;101050.00;;;;10405367;28;20326;-80
2022/11/05 20:21:44;;;;;;;5.70;2.97;;;;;9.70;101054.00;;;;10425261;28;20214;-80
2022/11/05 20:26:45;;;;;;;8.13;3.20;;;;;9.60;101059.00;;;;10445123;28;20267;-80
2022/11/05 20:31:48;;;;;;;8.27;3.90;;;;;9.60;101062.00;;;;10429341;28;20186;-80
2022/11/05 20:36:50;;;;;;;9.17;2.97;;;;;9.50;101063.00;;;;10428988;28;20216;-80
2022/11/05 20:41:52;;;;;;;5.63;3.40;;;;;9.50;101059.00;;;;10429890;28;20185;-80
2022/11/05 20:46:54;;;;;;;7.60;2.80;;;;;9.40;101074.00;;;;10445228;28;20219;-80
2022/11/05 20:51:56;;;;;;;9.33;3.30;;;;;9.40;101073.00;;;;10445310;28;20644;-80
2022/11/05 20:56:58;;;;;;;8.87;4.03;;;;;9.30;101079.00;;;;10428708;28;20198;-80
2022/11/05 21:02:00;;;;;;;8.53;3.83;;;;;9.20;101094.00;;;;10428884;28;20196;-79
2022/11/05 21:07:02;;;;;;;7.33;4.17;;;;;9.20;101108.00;;;;10428102;28;20217;-80
2022/11/05 21:12:10;;;;;;;8.73;4.77;;;;;9.20;101099.00;;;;10444141;28;20189;-79
2022/11/05 21:17:12;;;;;;;4.93;3.60;;;;;9.10;101105.00;;;;10435677;28;20198;-79
2022/11/05 21:22:14;;;;;;;8.93;5.07;;;;;9.10;101094.00;;;;10428221;28;20197;-80
2022/11/05 21:27:16;;;;;;;8.03;4.13;;;;;9.00;101093.00;;;;10428021;28;20202;-79
2022/11/05 21:32:18;;;;;;;13.67;4.80;;;;;8.90;101072.00;;;;10427117;28;20198;-79
2022/11/05 21:37:20;;;;;;;10.40;4.50;;;;;9.00;101076.00;;;;10427291;28;20239;-79
2022/11/05 21:42:22;;;;;;;10.17;4.53;;;;;9.00;101079.00;;;;10427639;28;20238;-80
2022/11/05 21:47:26;;;;;;;9.03;4.23;;;;;9.00;101077.00;;;;10427183;28;20579;-79
2022/11/05 22:03:09;;;;;;;5.60;3.90;;;;;9.00;101067.00;;;;10427164;28;20228;-80
2022/11/05 22:08:11;;;;;;;10.07;3.57;;;;;9.00;101051.00;;;;10443168;28;20439;-79
2022/11/05 22:13:14;;;;;;;5.10;4.00;;;;;8.90;101056.00;;;;10443895;28;20186;-79
2022/11/05 22:18:16;;;;;;;6.20;3.47;;;;;8.90;101059.00;;;;10411452;28;20619;-80
2022/11/05 22:23:18;;;;;;;9.13;3.20;;;;;8.90;101055.00;;;;10418234;28;20260;-80
2022/11/05 22:28:20;;;;;;;8.23;3.10;;;;;8.90;101050.00;;;;10402133;28;20210;-80
2022/11/05 22:33:22;;;;;;;9.47;2.80;;;;;8.90;101040.00;;;;10403882;28;20230;-79
2022/11/05 22:38:23;;;;;;;4.37;3.27;;;;;8.90;101034.00;;;;10476072;28;20197;-79
2022/11/05 22:43:25;;;;;;;7.67;3.63;;;;;9.00;101027.00;;;;10446153;28;20573;-79
2022/11/05 22:48:27;;;;;;;5.53;3.03;;;;;9.00;101020.00;;;;10450292;28;20205;-80
2022/11/05 22:53:29;;;;;;;9.67;3.23;;;;;9.00;101007.00;;;;10450099;28;20215;-79
2022/11/05 22:58:31;;;;;;;10.17;3.10;;;;;9.00;100999.00;;;;10433079;28;20193;-79
2022/11/05 23:03:34;;;;;;;6.83;2.77;;;;;9.10;101006.00;;;;10440145;28;20221;-79
2022/11/05 23:13:56;;;;;;;6.60;2.70;;;;;9.00;101002.00;;;;10465034;28;20201;-80
2022/11/05 23:24:19;;;;;;;4.33;2.30;;;;;8.90;100992.00;;;;10430685;28;20610;-79
2022/11/05 23:29:24;;;;;;;9.33;2.90;;;;;9.00;100994.00;;;;10464757;28;20286;-79
2022/11/05 23:34:27;;;;;;;7.93;2.27;;;;;9.10;100983.00;;;;10464249;28;20206;-80
2022/11/05 23:39:28;;;;;;;6.73;3.00;;;;;9.20;100973.00;;;;10431374;28;20190;-79
2022/11/05 23:49:50;;;;;;;11.40;2.50;;;;;9.50;100977.00;;;;10463707;28;20215;-79
2022/11/05 23:54:52;;;;;;;5.30;2.13;;;;;9.40;100963.00;;;;10430973;28;20200;-79
2022/11/05 23:59:54;;;;;;;5.43;1.93;;;;;9.40;100965.00;;;;10431110;28;20196;-79
